Terminal Aerodrome Forecast
Issued by NWS

Home | Current Version | Previous Version | Text Only | Print | Product List | Glossary On
Versions: 1 2 3 4 5 6 7 8 9 10 11 12 13 14 15 16 17 18 19 20 21 22 23 24 25 26 27
000
FTUS46 KOTX 221139
TAFSFF
TAF
KSFF 221139Z 2212/2312 04004KT P6SM FEW110 BKN200
     FM222000 18006KT P6SM VCSH SCT050 OVC090
     FM222300 19010KT P6SM -RA SCT040 OVC080
     FM230700 18011KT 6SM -RA BR SCT020 OVC040=

USA.gov is the U.S. government's official web portal to all federal, state and local government web resources and services.